Tropical Cyclones
[Index]
Main Index Home Page Stock Weather Photos Extreme Storms Discussion Storm News and Storm Chasing Reports Tropical Cyclones / Hurricanes / Typhoons Weather Data and Links Wild Fires / Bushfires Weather Observation Techniques Weather Picture Catalogue Tornado Pictures and Reports Stock Video Footage and DVDs for sale
Season 2001-2002 Tropical Cyclone BONNIE Track Map
Season 2001-2002 Summaries (Operational Data): [AU] [SIO] [SPAC] [SH]
<<- Previous TC | 2001-2002 Season | Next TC ->>

click for intensity scale information  Lat/long Grid: Show Hide

 Date Labels: Show Hide

Operational Tropical Cyclone Data : JTWC Advisories

Name: BONNIE
Number: 0222

09 Apr 2002 03:00 UTC to 15 Apr 2002 12:00 UTC

    date/time    lat    long     hPa   cat  kts
2002-04-09 03    6.5   129.5    1004                     
2002-04-09 18    8.5   128.0    1000         30          
2002-04-09 22    9.2   127.2     998         30          
2002-04-10 00    9.3   126.8     995    1    35          
2002-04-10 06    9.6   125.8     995    1    35          
2002-04-10 10   10.0   125.0     997    1    35          
2002-04-10 16   10.4   124.2     997    1    35          
2002-04-10 22   10.4   122.5     990    1    40          
2002-04-11 00   10.0   121.7     990    1    45          
2002-04-11 04    9.8   121.4     990    1    45          
2002-04-11 10    9.8   120.4     990    1    45          
2002-04-11 13   10.3   119.8     995    1    40          
2002-04-11 16   10.3   118.8     990    1    45          
2002-04-11 22   10.2   117.5     985    1    45          
2002-04-12 04   10.2   116.2     985    2    50          
2002-04-12 10   10.2   114.6     985    2    50          
2002-04-12 16   10.3   113.3     985    2    50          
2002-04-12 22   10.6   111.2     985    2    50          
2002-04-13 01   11.6   111.6     985    2    50          
2002-04-13 04   11.8   110.8     990    1    45          
2002-04-13 10   12.2   109.6     990    1    45          
2002-04-13 16   12.2   109.0     990    1    45          
2002-04-13 22   12.3   108.5     990    1    45          
2002-04-14 00   12.3   107.3     990    1    45          
2002-04-14 04   12.5   106.6     990    1    45          
2002-04-14 10   13.8   105.3     990    1    45          
2002-04-14 16   14.3   104.7     995    1    40          
2002-04-14 22   14.7   104.0     995    1    40          
2002-04-14 23   15.5   101.0    1000         30          
2002-04-15 00   15.5   101.6                             
2002-04-15 12   16.1    98.2                             
Winds are 10-min average.

Tropical cyclone tracks developed by Michael Bath using operational warnings and advisories and Google Maps.


[Australian Severe Weather index] [Copyright Notice] [Email Contacts] [Search This Site] [Privacy Policy]
Document: tropical_cyclone_bonnie.htm Updated: 28 May 2013